Time;durP1;ratioP1;P1;durP2;ratioP2;P2;SDS_P1;SDS_P2;PMS_P1;PMS_P2;Temp;Humidity;BMP_temperature;BMP_pressure;BME280_temperature;BME280_humidity;BME280_pressure;Samples;Min_cycle;Max_cycle;Signal;HPM_P1;HPM_P2
2023/09/10 00:00:46;;;;;;;20.53;3.63;;;;;;;16.73;99.83;100641.97;5023530;28;20280;-58
2023/09/10 00:03:17;;;;;;;19.37;3.80;;;;;;;16.84;98.91;100643.41;5028557;28;20279;-59
2023/09/10 00:05:49;;;;;;;25.13;3.83;;;;;;;16.86;97.42;100646.84;5043716;28;20788;-57
2023/09/10 00:08:19;;;;;;;23.40;3.20;;;;;;;16.73;98.05;100652.53;5036553;28;20390;-57
2023/09/10 00:10:50;;;;;;;15.70;3.70;;;;;;;16.75;99.05;100649.84;5047002;28;20743;-58
2023/09/10 00:13:21;;;;;;;15.33;3.57;;;;;;;16.90;98.29;100643.16;5036682;28;20731;-58
2023/09/10 00:15:52;;;;;;;17.10;3.40;;;;;;;16.85;97.70;100645.09;5047254;28;20742;-61
2023/09/10 00:18:23;;;;;;;28.13;4.13;;;;;;;16.77;98.55;100648.88;5036732;28;20303;-58
2023/09/10 00:20:55;;;;;;;20.37;3.43;;;;;;;16.84;98.18;100653.94;5046820;28;20286;-58
2023/09/10 00:23:26;;;;;;;25.93;3.90;;;;;;;17.04;97.67;100656.72;5037317;28;20289;-57
2023/09/10 00:25:57;;;;;;;17.70;3.60;;;;;;;17.17;96.67;100668.56;5046704;28;20305;-58
2023/09/10 00:28:27;;;;;;;14.87;2.97;;;;;;;17.34;97.43;100664.41;5036425;28;20306;-57
2023/09/10 00:30:58;;;;;;;14.33;3.47;;;;;;;17.16;95.51;100650.97;5047034;28;20305;-58
2023/09/10 00:33:29;;;;;;;14.77;3.53;;;;;;;17.12;94.42;100667.00;5035991;28;20266;-58
2023/09/10 00:36:01;;;;;;;24.37;3.67;;;;;;;17.09;95.34;100659.19;5043499;28;20374;-58
2023/09/10 00:38:32;;;;;;;22.90;3.30;;;;;;;16.91;97.08;100660.72;5047381;28;20283;-59
2023/09/10 00:41:05;;;;;;;23.20;4.20;;;;;;;16.92;97.18;100662.44;5036360;28;20305;-59
2023/09/10 00:43:36;;;;;;;22.97;3.67;;;;;;;17.19;97.10;100665.84;5045481;28;20279;-57
2023/09/10 00:46:07;;;;;;;19.00;3.73;;;;;;;17.39;97.30;100657.19;5034612;28;20286;-58
2023/09/10 00:48:38;;;;;;;18.90;3.83;;;;;;;17.11;95.52;100610.69;5046426;28;20348;-58
2023/09/10 00:51:11;;;;;;;20.53;4.00;;;;;;;17.39;95.72;100657.19;5035703;28;20297;-58
2023/09/10 00:53:43;;;;;;;16.80;3.00;;;;;;;17.46;94.61;100648.94;5046518;28;20792;-60
2023/09/10 00:56:14;;;;;;;21.47;3.57;;;;;;;17.48;93.80;100633.06;5017419;28;20296;-59
2023/09/10 00:58:46;;;;;;;15.53;3.50;;;;;;;17.62;92.80;100638.66;5042384;28;20279;-57
2023/09/10 01:01:17;;;;;;;16.37;3.07;;;;;;;17.76;92.54;100635.47;5032070;28;20299;-58
2023/09/10 01:03:48;;;;;;;20.67;3.47;;;;;;;17.54;91.83;100635.44;5044753;28;20368;-58
2023/09/10 01:06:21;;;;;;;19.17;4.40;;;;;;;17.31;92.81;100632.84;5029520;28;20672;-57
2023/09/10 01:08:52;;;;;;;17.97;3.33;;;;;;;17.07;93.70;100597.66;5046635;28;20291;-59
2023/09/10 01:11:29;;;;;;;23.70;3.73;;;;;;;17.53;94.79;100636.38;5037036;28;20282;-58
2023/09/10 01:14:11;;;;;;;18.73;3.97;;;;;;;17.71;91.91;100640.06;5045146;28;20286;-57
2023/09/10 01:16:49;;;;;;;20.47;4.00;;;;;;;17.86;92.64;100626.25;5045781;28;20784;-58
2023/09/10 01:19:43;;;;;;;22.77;3.67;;;;;;;18.07;92.11;100624.53;5036318;28;20279;-58
2023/09/10 01:22:26;;;;;;;25.57;4.00;;;;;;;18.35;90.75;100615.44;5035600;28;20291;-58
2023/09/10 01:25:00;;;;;;;15.27;3.40;;;;;;;18.60;90.93;100611.72;5045675;28;20301;-58
2023/09/10 01:27:31;;;;;;;24.20;4.33;;;;;;;18.69;88.57;100613.94;5035408;28;20352;-59
2023/09/10 01:30:02;;;;;;;19.03;3.33;;;;;;;18.68;88.16;100610.44;5035175;28;20808;-60
2023/09/10 01:32:37;;;;;;;20.63;4.60;;;;;;;18.62;87.75;100594.84;5046045;28;20274;-59
2023/09/10 01:35:19;;;;;;;25.00;3.77;;;;;;;18.78;88.18;100583.59;5035553;28;20286;-58
2023/09/10 01:37:59;;;;;;;24.13;3.77;;;;;;;18.97;86.80;100589.78;5045800;28;20275;-60
2023/09/10 01:40:36;;;;;;;19.00;3.00;;;;;;;19.04;87.49;100587.69;5032025;28;20275;-59
2023/09/10 01:43:06;;;;;;;21.97;4.00;;;;;;;19.08;85.45;100587.47;5015413;28;20659;-59
2023/09/10 01:45:38;;;;;;;20.17;3.30;;;;;;;18.94;86.91;100579.31;5035942;28;20276;-58
2023/09/10 01:48:09;;;;;;;17.17;3.73;;;;;;;18.86;89.33;100587.59;5027629;28;20286;-58
2023/09/10 01:50:39;;;;;;;15.73;3.70;;;;;;;18.71;86.92;100577.69;5035160;28;20333;-60
2023/09/10 01:53:10;;;;;;;25.97;4.63;;;;;;;18.70;88.52;100583.91;5024509;28;20318;-60
2023/09/10 01:55:42;;;;;;;17.20;3.60;;;;;;;18.77;88.79;100577.44;5038644;28;20363;-57
2023/09/10 01:58:13;;;;;;;14.43;3.80;;;;;;;18.83;89.18;100577.16;5020636;28;20295;-57
2023/09/10 02:00:44;;;;;;;16.47;4.03;;;;;;;18.66;88.09;100529.38;5028249;28;20379;-60
2023/09/10 02:03:15;;;;;;;21.43;4.17;;;;;;;19.12;88.43;100572.28;5000496;28;20300;-59
2023/09/10 02:05:46;;;;;;;18.03;4.00;;;;;;;19.23;87.63;100580.59;5011204;28;20875;-59
2023/09/10 02:08:16;;;;;;;23.10;4.03;;;;;;;19.39;87.77;100581.59;5004876;28;20291;-57
2023/09/10 02:10:48;;;;;;;27.60;3.57;;;;;;;19.42;86.19;100579.72;5014244;28;20288;-58
2023/09/10 02:13:19;;;;;;;16.47;3.57;;;;;;;19.45;86.32;100583.09;5004652;28;20848;-58
2023/09/10 02:15:49;;;;;;;17.53;3.60;;;;;;;19.37;85.97;100566.72;5021012;28;20283;-58
2023/09/10 02:18:20;;;;;;;16.33;3.40;;;;;;;19.39;86.40;100568.34;5019896;28;20280;-58
2023/09/10 02:20:50;;;;;;;19.97;3.73;;;;;;;19.25;85.34;100556.69;5045048;28;20279;-57
2023/09/10 02:23:21;;;;;;;19.77;3.67;;;;;;;19.54;87.66;100552.63;5035376;28;20272;-58
2023/09/10 02:25:54;;;;;;;23.07;4.57;;;;;;;19.30;85.54;100534.34;5044873;28;20306;-58
2023/09/10 02:28:25;;;;;;;14.37;3.63;;;;;;;19.46;85.46;100560.09;5018454;28;20357;-59
2023/09/10 02:30:55;;;;;;;20.10;3.90;;;;;;;19.44;85.76;100554.00;5031901;28;20622;-60
2023/09/10 02:33:26;;;;;;;24.07;4.00;;;;;;;19.68;88.30;100550.19;5020456;28;20335;-61
2023/09/10 02:35:56;;;;;;;22.10;4.60;;;;;;;19.74;85.81;100539.25;5032073;28;20315;-59
2023/09/10 02:38:27;;;;;;;25.13;4.20;;;;;;;19.92;84.71;100553.41;5040059;28;20304;-60
2023/09/10 02:41:00;;;;;;;17.50;3.80;;;;;;;20.00;83.19;100548.56;5050392;28;20294;-59
2023/09/10 02:43:30;;;;;;;18.50;4.27;;;;;;;20.08;85.33;100542.88;5040569;28;20286;-59
2023/09/10 02:46:01;;;;;;;22.87;4.33;;;;;;;20.18;84.43;100549.41;5041364;28;20295;-59
2023/09/10 02:48:31;;;;;;;18.90;3.70;;;;;;;20.12;83.09;100549.75;5050594;28;20366;-60
2023/09/10 02:51:02;;;;;;;25.90;4.43;;;;;;;20.17;84.54;100547.69;5037310;28;20743;-58
2023/09/10 02:53:33;;;;;;;23.23;4.80;;;;;;;20.04;82.66;100541.28;5050971;28;20286;-60
2023/09/10 02:56:05;;;;;;;20.77;3.80;;;;;;;19.92;83.78;100536.63;5040028;28;20278;-60
2023/09/10 02:58:36;;;;;;;28.27;4.07;;;;;;;20.06;85.13;100538.56;5050743;28;20332;-59
2023/09/10 03:01:07;;;;;;;21.40;4.23;;;;;;;20.13;85.79;100498.38;5038696;28;20348;-59
2023/09/10 03:03:38;;;;;;;13.43;3.00;;;;;;;20.40;83.32;100543.00;5049673;28;21184;-60
2023/09/10 03:06:13;;;;;;;15.00;3.80;;;;;;;20.46;84.03;100532.03;5041593;28;20275;-60
2023/09/10 03:08:44;;;;;;;16.87;3.90;;;;;;;20.64;81.92;100531.09;5049532;28;20294;-60
2023/09/10 03:11:17;;;;;;;23.60;3.60;;;;;;;20.70;83.17;100518.44;5037566;28;20282;-60
2023/09/10 03:13:47;;;;;;;21.97;3.70;;;;;;;20.80;81.93;100540.88;5037270;28;20778;-59
2023/09/10 03:16:18;;;;;;;23.80;4.03;;;;;;;20.97;81.90;100538.16;5029745;28;20290;-59
2023/09/10 03:18:49;;;;;;;22.57;4.00;;;;;;;20.95;79.03;100534.72;5036534;28;20283;-60
2023/09/10 03:21:20;;;;;;;18.70;4.13;;;;;;;20.96;80.46;100535.56;5040225;28;20299;-58
2023/09/10 03:23:51;;;;;;;23.10;3.80;;;;;;;20.97;80.50;100534.66;5050564;28;20572;-57
2023/09/10 03:26:23;;;;;;;15.63;3.87;;;;;;;20.97;79.47;100495.66;5039981;28;20374;-59
2023/09/10 03:28:56;;;;;;;17.27;3.93;;;;;;;21.11;78.42;100514.31;5050616;28;20266;-60
2023/09/10 03:31:27;;;;;;;17.93;3.90;;;;;;;21.23;78.79;100520.75;5038736;28;20741;-60
2023/09/10 03:33:58;;;;;;;24.23;4.30;;;;;;;21.38;77.97;100503.06;5047936;28;20279;-59
2023/09/10 03:36:28;;;;;;;17.27;3.37;;;;;;;21.50;78.50;100515.69;5038092;28;20278;-59
2023/09/10 03:38:59;;;;;;;15.23;4.07;;;;;;;21.63;77.56;100514.97;5050148;28;20314;-60
2023/09/10 03:41:32;;;;;;;14.80;3.77;;;;;;;21.73;76.57;100510.81;5032969;28;20678;-60
2023/09/10 03:44:02;;;;;;;14.93;3.83;;;;;;;21.75;75.76;100508.94;5042617;28;20298;-59
2023/09/10 03:46:33;;;;;;;19.43;4.13;;;;;;;21.90;75.55;100496.53;5053875;28;20102;-60
2023/09/10 03:49:04;;;;;;;18.43;3.63;;;;;;;22.08;74.46;100507.88;5043678;28;20294;-59
2023/09/10 03:51:35;;;;;;;16.33;4.13;;;;;;;21.98;74.89;100503.09;5055132;28;20293;-59
2023/09/10 03:54:07;;;;;;;16.40;3.93;;;;;;;22.04;75.20;100503.66;5042782;28;20266;-59
2023/09/10 03:56:39;;;;;;;17.83;4.33;;;;;;;22.10;75.67;100503.31;5044397;28;20072;-59
2023/09/10 03:59:10;;;;;;;14.73;3.57;;;;;;;21.76;76.22;100452.97;5024799;28;20183;-59
2023/09/10 04:01:41;;;;;;;14.83;3.50;;;;;;;21.92;74.63;100468.88;5034326;28;20058;-59
2023/09/10 04:04:12;;;;;;;14.23;3.77;;;;;;;22.09;73.79;100505.13;5025276;28;20052;-59
2023/09/10 04:06:46;;;;;;;14.23;3.50;;;;;;;22.17;75.15;100504.66;5035206;28;20618;-59
2023/09/10 04:09:18;;;;;;;19.50;3.80;;;;;;;22.25;74.30;100499.75;5024355;28;20494;-59
2023/09/10 04:11:51;;;;;;;16.17;4.13;;;;;;;22.23;74.51;100509.63;5032759;28;20356;-59
2023/09/10 04:14:22;;;;;;;18.03;3.80;;;;;;;22.06;75.36;100507.09;5024465;28;20063;-59
2023/09/10 04:16:52;;;;;;;19.70;5.40;;;;;;;22.10;76.05;100498.00;5033896;28;21344;-59
2023/09/10 04:19:24;;;;;;;13.80;3.97;;;;;;;22.32;75.87;100508.22;5023748;28;20922;-59
2023/09/10 04:21:55;;;;;;;17.23;4.10;;;;;;;22.45;74.36;100508.31;5034073;28;20101;-60
2023/09/10 04:24:26;;;;;;;17.63;3.27;;;;;;;22.60;74.13;100502.03;5042019;28;20131;-61
2023/09/10 04:26:58;;;;;;;15.07;3.97;;;;;;;22.67;73.13;100503.38;5052186;28;20052;-59
2023/09/10 04:29:29;;;;;;;18.83;3.80;;;;;;;22.70;71.13;100502.31;5041918;28;20147;-59
2023/09/10 04:31:59;;;;;;;16.93;4.00;;;;;;;22.77;72.59;100493.84;5050055;28;20048;-59
2023/09/10 04:34:30;;;;;;;18.33;3.50;;;;;;;22.82;71.52;100497.06;5053024;28;20390;-60
2023/09/10 04:37:02;;;;;;;13.83;3.60;;;;;;;22.90;72.91;100493.06;5045750;28;20065;-59
2023/09/10 04:39:33;;;;;;;15.87;4.03;;;;;;;22.91;71.41;100494.75;5049444;28;20076;-59
2023/09/10 04:42:05;;;;;;;20.37;4.03;;;;;;;22.98;71.99;100490.78;5040934;28;20063;-58
2023/09/10 04:44:36;;;;;;;13.03;3.77;;;;;;;22.94;71.52;100499.88;5052207;28;20114;-59
2023/09/10 04:47:06;;;;;;;16.43;3.77;;;;;;;22.90;70.78;100487.72;5042372;28;20062;-59
2023/09/10 04:49:38;;;;;;;18.20;3.93;;;;;;;23.00;72.73;100481.72;5051190;28;20060;-59
2023/09/10 04:52:08;;;;;;;11.10;3.27;;;;;;;23.30;75.08;100479.81;5042264;28;20060;-60
2023/09/10 04:54:39;;;;;;;16.30;4.00;;;;;;;23.52;73.83;100480.09;5051226;28;20044;-58
2023/09/10 04:57:12;;;;;;;16.40;4.40;;;;;;;23.76;72.15;100468.75;5041624;28;20264;-58
2023/09/10 04:59:43;;;;;;;17.57;3.67;;;;;;;23.85;71.27;100457.47;5052890;28;20549;-58
2023/09/10 05:02:13;;;;;;;14.00;4.10;;;;;;;23.88;69.33;100465.25;5039707;28;20485;-59
2023/09/10 05:04:44;;;;;;;15.90;4.20;;;;;;;23.97;71.08;100464.63;5050298;28;20043;-59
2023/09/10 05:07:14;;;;;;;12.57;4.23;;;;;;;24.08;69.45;100461.19;5041004;28;20482;-59
2023/09/10 05:09:45;;;;;;;21.43;4.43;;;;;;;24.18;69.96;100472.09;5051010;28;20062;-59
2023/09/10 05:12:17;;;;;;;15.40;3.63;;;;;;;24.33;69.07;100469.19;5041179;28;20039;-60
2023/09/10 05:14:48;;;;;;;16.23;4.07;;;;;;;24.10;67.50;100460.13;5052081;28;20059;-59
2023/09/10 05:17:19;;;;;;;19.80;4.53;;;;;;;24.22;69.68;100462.91;5041956;28;20132;-59
2023/09/10 05:19:50;;;;;;;11.80;3.63;;;;;;;24.19;68.79;100476.47;5050291;28;20126;-59
2023/09/10 05:22:20;;;;;;;13.23;4.17;;;;;;;24.15;70.24;100477.66;5042108;28;20054;-59
2023/09/10 05:24:51;;;;;;;19.27;4.33;;;;;;;24.31;71.78;100472.94;5050913;28;20059;-58
2023/09/10 05:27:24;;;;;;;17.03;4.10;;;;;;;24.36;70.27;100461.94;5041235;28;20156;-59
2023/09/10 05:29:54;;;;;;;15.00;4.20;;;;;;;24.21;70.36;100434.50;5051581;28;20146;-59
2023/09/10 05:32:25;;;;;;;11.13;4.07;;;;;;;24.27;69.86;100452.78;5042381;28;20052;-59
2023/09/10 05:34:56;;;;;;;11.50;3.43;;;;;;;24.36;69.50;100460.09;5050865;28;20096;-58
2023/09/10 05:37:26;;;;;;;13.90;3.53;;;;;;;24.21;69.29;100462.06;5040797;28;20391;-59
2023/09/10 05:39:57;;;;;;;15.47;4.57;;;;;;;24.05;69.69;100467.59;5051526;28;20229;-56
2023/09/10 06:00:25;;;;;;;20.27;4.97;;;;;;;24.03;71.15;100471.34;4980176;28;20095;-56
2023/09/10 06:02:56;;;;;;;20.77;5.33;;;;;;;23.90;71.05;100452.66;4996525;28;20584;-60
2023/09/10 06:05:27;;;;;;;16.53;4.17;;;;;;;24.04;73.04;100455.25;4991711;28;20049;-58
2023/09/10 06:07:57;;;;;;;19.40;4.33;;;;;;;24.08;70.93;100467.38;4982748;28;20093;-56
2023/09/10 06:10:28;;;;;;;15.57;4.33;;;;;;;23.96;72.20;100465.56;4990023;28;20144;-59
2023/09/10 06:12:59;;;;;;;13.30;3.70;;;;;;;23.63;71.23;100437.53;4989183;28;20057;-59
2023/09/10 06:15:31;;;;;;;17.40;4.53;;;;;;;23.63;71.85;100469.56;4998715;28;20128;-59
2023/09/10 06:18:01;;;;;;;17.73;4.57;;;;;;;23.57;73.11;100467.31;4997715;28;20095;-59
2023/09/10 06:20:32;;;;;;;320.67;203.77;;;;;;;23.57;73.94;100467.31;5006896;28;20136;-59
2023/09/10 06:23:03;;;;;;;26.33;10.73;;;;;;;23.35;73.12;100456.38;5024775;28;20592;-58
2023/09/10 06:25:35;;;;;;;79.00;42.07;;;;;;;23.41;74.05;100467.50;5051161;28;20078;-61
2023/09/10 06:28:07;;;;;;;17.33;4.30;;;;;;;23.41;74.36;100471.97;5039725;28;20056;-58
2023/09/10 06:30:40;;;;;;;17.57;3.33;;;;;;;23.34;74.74;100465.31;5050650;28;20040;-57
2023/09/10 06:33:11;;;;;;;16.47;3.80;;;;;;;23.23;75.18;100469.56;5039700;28;20366;-59
2023/09/10 06:35:41;;;;;;;17.50;4.20;;;;;;;23.17;75.77;100475.31;5049171;28;20547;-58
2023/09/10 06:38:12;;;;;;;12.60;4.13;;;;;;;23.07;75.86;100490.19;5039111;28;20059;-57
2023/09/10 06:40:43;;;;;;;119.17;67.23;;;;;;;22.99;76.76;100503.16;5051753;28;20052;-59
2023/09/10 06:43:13;;;;;;;43.13;21.40;;;;;;;22.96;77.77;100492.63;5039809;28;20375;-57
2023/09/10 06:45:47;;;;;;;33.07;13.27;;;;;;;22.95;77.61;100502.44;5051538;28;20207;-58
2023/09/10 06:48:18;;;;;;;17.47;6.27;;;;;;;22.87;76.49;100494.09;5039878;28;20069;-58
2023/09/10 06:50:49;;;;;;;24.73;9.60;;;;;;;22.53;77.99;100450.09;5049129;28;20063;-58
2023/09/10 06:53:20;;;;;;;21.90;6.03;;;;;;;22.83;81.01;100498.75;5039758;28;20050;-58
2023/09/10 06:55:50;;;;;;;30.43;6.37;;;;;;;22.85;81.49;100511.16;5050367;28;20066;-58
2023/09/10 06:58:21;;;;;;;18.80;5.73;;;;;;;22.77;82.31;100520.47;5040282;28;20056;-59
2023/09/10 07:00:53;;;;;;;20.57;4.83;;;;;;;22.71;83.09;100530.66;5049668;28;20052;-59
2023/09/10 07:03:24;;;;;;;22.03;5.70;;;;;;;22.62;83.46;100526.78;5040108;28;20052;-58
2023/09/10 07:05:55;;;;;;;19.60;4.80;;;;;;;22.46;84.13;100528.66;5050610;28;20123;-59
2023/09/10 07:08:26;;;;;;;19.40;5.67;;;;;;;22.36;84.80;100525.69;5038303;28;20318;-58
2023/09/10 07:10:57;;;;;;;20.90;6.33;;;;;;;22.16;84.94;100532.22;5048546;28;20113;-58
2023/09/10 07:13:29;;;;;;;16.77;4.27;;;;;;;21.88;83.92;100539.19;5040699;28;20777;-59
2023/09/10 07:16:01;;;;;;;14.07;3.17;;;;;;;21.45;84.73;100532.84;5048995;28;20052;-59
2023/09/10 07:18:33;;;;;;;22.37;3.70;;;;;;;21.13;86.15;100547.94;5054105;28;20045;-58
2023/09/10 07:21:04;;;;;;;34.00;4.27;;;;;;;20.94;87.57;100540.97;5041862;28;20060;-59
2023/09/10 07:23:34;;;;;;;21.23;4.33;;;;;;;20.87;88.40;100552.91;5053519;28;20102;-59
2023/09/10 07:26:05;;;;;;;21.70;3.67;;;;;;;20.42;88.88;100515.44;5042682;28;20056;-58
2023/09/10 07:28:36;;;;;;;21.93;5.20;;;;;;;20.54;90.73;100551.06;5055245;28;20549;-59
2023/09/10 07:31:09;;;;;;;22.13;3.57;;;;;;;20.55;90.47;100563.44;5043486;28;20381;-58
2023/09/10 07:33:40;;;;;;;19.33;2.87;;;;;;;20.29;90.36;100545.34;5054334;28;20641;-58
2023/09/10 07:36:10;;;;;;;15.87;3.83;;;;;;;20.10;91.15;100567.53;5033506;28;20828;-59
2023/09/10 07:38:42;;;;;;;16.70;3.33;;;;;;;19.96;92.22;100565.56;5047143;28;20291;-58
2023/09/10 07:41:13;;;;;;;20.40;3.50;;;;;;;19.89;92.77;100563.28;5042928;28;20633;-59
2023/09/10 07:43:44;;;;;;;22.20;3.87;;;;;;;19.77;92.89;100557.69;5053517;28;20813;-58
2023/09/10 07:46:16;;;;;;;19.60;3.20;;;;;;;19.75;92.92;100559.56;5042438;28;20282;-61
2023/09/10 07:48:47;;;;;;;18.53;3.23;;;;;;;19.68;92.62;100565.25;5052439;28;20297;-58
2023/09/10 07:51:17;;;;;;;14.00;3.23;;;;;;;19.69;93.43;100566.94;5043539;28;20302;-58
2023/09/10 07:53:48;;;;;;;22.80;3.60;;;;;;;19.68;93.31;100576.69;5052652;28;20285;-59
2023/09/10 07:56:19;;;;;;;22.83;3.40;;;;;;;19.67;93.30;100569.69;5042214;28;21078;-59
2023/09/10 07:58:50;;;;;;;20.97;3.37;;;;;;;19.67;93.45;100568.78;5052978;28;20925;-59
2023/09/10 08:01:23;;;;;;;21.30;3.67;;;;;;;19.66;93.88;100562.63;5041663;28;20276;-59
2023/09/10 08:03:54;;;;;;;16.63;3.63;;;;;;;19.59;94.25;100561.19;5054725;28;20823;-59
2023/09/10 08:06:27;;;;;;;21.03;3.33;;;;;;;19.62;94.71;100566.38;5034484;28;20367;-59
2023/09/10 08:09:05;;;;;;;21.13;4.75;;;;;;;19.63;95.72;100568.06;5039288;28;20352;-60
2023/09/10 08:11:37;;;;;;;22.37;4.73;;;;;;;19.68;97.80;100576.69;5052528;28;20585;-59
2023/09/10 08:14:07;;;;;;;26.33;4.60;;;;;;;19.68;99.30;100571.38;5042619;28;20275;-59
2023/09/10 08:16:39;;;;;;;18.27;4.33;;;;;;;19.65;100.00;100568.88;5053274;28;20275;-59
2023/09/10 08:19:10;;;;;;;19.73;4.87;;;;;;;19.63;100.00;100573.38;5042758;28;20465;-59
2023/09/10 08:21:42;;;;;;;23.83;4.80;;;;;;;19.34;100.00;100541.19;5053191;28;20617;-59
2023/09/10 08:24:12;;;;;;;15.97;4.53;;;;;;;19.50;100.00;100583.72;5041803;28;20301;-59
2023/09/10 08:26:43;;;;;;;24.80;4.57;;;;;;;19.44;100.00;100577.84;5049134;28;20305;-59
2023/09/10 08:29:17;;;;;;;17.60;4.30;;;;;;;19.36;100.00;100581.72;5041930;28;20410;-59
2023/09/10 08:31:49;;;;;;;18.53;4.83;;;;;;;19.27;100.00;100571.59;5052036;28;20765;-59
2023/09/10 08:34:20;;;;;;;22.27;4.40;;;;;;;19.17;100.00;100575.59;5041268;28;20877;-59
2023/09/10 08:36:51;;;;;;;21.30;5.10;;;;;;;19.11;100.00;100570.56;5052442;28;20274;-59
2023/09/10 08:39:22;;;;;;;15.77;4.50;;;;;;;19.12;100.00;100565.22;5042503;28;20881;-59
2023/09/10 08:42:04;;;;;;;16.60;4.40;;;;;;;19.13;100.00;100563.44;5053299;28;20290;-58
2023/09/10 08:44:35;;;;;;;18.10;4.07;;;;;;;19.06;100.00;100562.00;5041087;28;20297;-58
2023/09/10 08:47:09;;;;;;;20.77;4.20;;;;;;;18.95;100.00;100560.72;5041454;28;20275;-59
2023/09/10 08:49:43;;;;;;;24.30;5.17;;;;;;;18.89;100.00;100563.63;5050233;28;20771;-60
2023/09/10 08:52:14;;;;;;;17.77;5.17;;;;;;;18.81;100.00;100571.06;5042344;28;20278;-59
2023/09/10 08:54:45;;;;;;;18.77;5.30;;;;;;;18.75;100.00;100574.84;5053222;28;20304;-57
2023/09/10 08:57:18;;;;;;;21.13;4.77;;;;;;;18.72;100.00;100579.38;5042868;28;20654;-59
2023/09/10 08:59:50;;;;;;;15.90;4.40;;;;;;;18.57;100.00;100566.84;5052343;28;20574;-59
2023/09/10 09:02:23;;;;;;;21.93;4.70;;;;;;;18.63;100.00;100585.09;5039286;28;20277;-59
2023/09/10 09:05:04;;;;;;;23.73;4.90;;;;;;;18.57;100.00;100590.66;5051921;28;20344;-59
2023/09/10 09:07:55;;;;;;;18.50;4.17;;;;;;;18.48;100.00;100598.09;5048397;28;20274;-59
2023/09/10 09:10:31;;;;;;;19.57;4.00;;;;;;;18.42;100.00;100598.38;5041049;28;20282;-60
2023/09/10 09:14:10;;;;;;;17.03;4.70;;;;;;;18.38;100.00;100602.06;5051147;28;20732;-60
2023/09/10 09:17:00;;;;;;;25.60;4.33;;;;;;;18.24;100.00;100580.63;5003354;28;20768;-60
2023/09/10 09:19:42;;;;;;;15.77;4.40;;;;;;;18.30;100.00;100604.19;5051082;28;20286;-59
2023/09/10 09:22:19;;;;;;;21.27;4.50;;;;;;;18.23;100.00;100608.00;5039665;28;20369;-60
2023/09/10 09:24:52;;;;;;;16.63;3.97;;;;;;;18.27;100.00;100620.16;5051283;28;20740;-60
2023/09/10 09:27:25;;;;;;;16.50;4.67;;;;;;;18.21;100.00;100616.00;5042349;28;20270;-60
2023/09/10 09:29:57;;;;;;;25.27;5.47;;;;;;;18.05;100.00;100599.06;5052450;28;20318;-60
2023/09/10 09:32:29;;;;;;;31.50;4.73;;;;;;;17.92;100.00;100566.13;5041003;28;20763;-60
2023/09/10 09:35:04;;;;;;;21.27;4.80;;;;;;;18.11;100.00;100620.81;5042826;28;20352;-60
2023/09/10 09:37:36;;;;;;;23.73;5.20;;;;;;;18.10;100.00;100613.81;5050457;28;20597;-60
2023/09/10 09:40:09;;;;;;;22.00;4.47;;;;;;;18.05;100.00;100615.78;5037172;28;20282;-60
2023/09/10 09:42:41;;;;;;;12.47;4.47;;;;;;;17.92;100.00;100614.56;5051679;28;20325;-59
2023/09/10 09:45:13;;;;;;;26.93;4.90;;;;;;;18.01;100.00;100629.22;5042387;28;20365;-60
2023/09/10 09:47:48;;;;;;;17.37;4.63;;;;;;;17.95;100.00;100619.75;5051074;28;20285;-60
2023/09/10 09:50:22;;;;;;;17.37;5.23;;;;;;;17.98;100.00;100624.06;5039379;28;20272;-59
2023/09/10 09:52:55;;;;;;;17.83;4.83;;;;;;;17.93;100.00;100632.16;5051274;28;20380;-59
2023/09/10 09:55:26;;;;;;;20.13;4.20;;;;;;;17.62;100.00;100585.81;5040089;28;20364;-59
2023/09/10 09:57:58;;;;;;;20.30;4.57;;;;;;;17.86;100.00;100631.53;5050529;28;20274;-59
2023/09/10 10:00:30;;;;;;;17.13;4.53;;;;;;;17.83;100.00;100630.81;5021381;28;20291;-59
2023/09/10 10:03:04;;;;;;;19.33;4.50;;;;;;;17.82;100.00;100634.38;5040135;28;20764;-59
2023/09/10 10:05:38;;;;;;;20.40;5.10;;;;;;;17.77;100.00;100636.31;5052593;28;20287;-59
2023/09/10 10:08:10;;;;;;;15.07;4.17;;;;;;;17.77;100.00;100636.31;5040471;28;20326;-59
2023/09/10 10:10:49;;;;;;;21.20;5.00;;;;;;;17.79;100.00;100645.91;5049524;28;20608;-59
2023/09/10 10:13:22;;;;;;;19.88;4.60;;;;;;;17.78;100.00;100653.91;5040853;28;20798;-59
2023/09/10 10:15:55;;;;;;;19.53;5.70;;;;;;;17.75;100.00;100651.41;5051256;28;20141;-58
2023/09/10 10:18:28;;;;;;;15.27;4.80;;;;;;;17.76;100.00;100647.81;5020922;28;20289;-58
2023/09/10 10:21:04;;;;;;;15.17;4.33;;;;;;;17.68;100.00;100648.97;5026965;28;20294;-58
2023/09/10 10:23:36;;;;;;;13.97;4.83;;;;;;;17.59;100.00;100643.19;5030374;28;20283;-58
2023/09/10 10:26:08;;;;;;;19.27;4.67;;;;;;;17.63;100.00;100658.88;5019891;28;20386;-59
2023/09/10 10:28:42;;;;;;;18.17;4.60;;;;;;;17.58;100.00;100647.63;5030379;28;20306;-59
2023/09/10 10:31:17;;;;;;;18.53;4.93;;;;;;;17.51;100.00;100646.13;5022012;28;20615;-59
2023/09/10 10:33:57;;;;;;;16.37;4.57;;;;;;;17.53;100.00;100649.59;5031221;28;20353;-58
2023/09/10 10:36:38;;;;;;;19.10;4.97;;;;;;;17.55;100.00;100655.69;5060117;28;20655;-60
2023/09/10 10:39:12;;;;;;;16.57;5.20;;;;;;;17.50;100.00;100651.47;5058944;28;20040;-59
2023/09/10 10:42:11;;;;;;;22.00;5.00;;;;;;;17.19;100.00;100619.19;5069964;28;20286;-59
2023/09/10 10:44:46;;;;;;;19.97;5.60;;;;;;;17.40;100.00;100658.91;4959610;28;20595;-59
2023/09/10 10:47:27;;;;;;;16.73;5.10;;;;;;;17.38;100.00;100650.19;4957798;28;20295;-59
2023/09/10 10:50:01;;;;;;;16.40;5.40;;;;;;;17.46;100.00;100662.16;4967154;28;20313;-58
2023/09/10 10:52:47;;;;;;;18.57;5.77;;;;;;;17.19;100.00;100627.09;4957189;28;20288;-60
2023/09/10 10:55:20;;;;;;;14.90;5.50;;;;;;;17.44;100.00;100673.72;4958680;28;20308;-59
2023/09/10 10:57:52;;;;;;;18.37;5.30;;;;;;;17.36;100.00;100652.00;4967960;28;20380;-60
2023/09/10 11:00:25;;;;;;;21.57;5.40;;;;;;;16.87;100.00;100575.50;4960361;28;20384;-59
2023/09/10 11:03:15;;;;;;;18.73;5.57;;;;;;;17.41;100.00;100671.19;4977130;28;20289;-60
2023/09/10 11:06:06;;;;;;;20.10;5.10;;;;;;;17.10;100.00;100624.81;4976909;28;20281;-59
2023/09/10 11:08:41;;;;;;;17.87;5.67;;;;;;;17.28;100.00;100654.94;4968313;28;20333;-59
2023/09/10 11:11:13;;;;;;;13.20;4.67;;;;;;;17.34;100.00;100670.56;4967085;28;20740;-59
2023/09/10 11:14:02;;;;;;;18.27;5.80;;;;;;;17.36;100.00;100673.16;4979094;28;20289;-60
2023/09/10 11:16:33;;;;;;;16.13;5.38;;;;;;;17.35;100.00;100669.66;5031359;28;20356;-60
2023/09/10 11:19:05;;;;;;;22.10;5.63;;;;;;;17.34;100.00;100675.84;5034171;28;20036;-59
2023/09/10 11:22:15;;;;;;;21.53;6.43;;;;;;;17.33;100.00;100668.00;5050481;28;20376;-60
2023/09/10 11:25:02;;;;;;;16.53;5.40;;;;;;;17.28;100.00;100676.09;5045849;28;20275;-59
2023/09/10 11:27:34;;;;;;;19.87;5.50;;;;;;;17.07;100.00;100640.75;5040118;28;20278;-59
2023/09/10 11:30:15;;;;;;;14.07;5.70;;;;;;;17.24;100.00;100670.03;5038726;28;20314;-59
2023/09/10 11:32:46;;;;;;;23.13;6.23;;;;;;;17.25;100.00;100666.50;5050002;28;20656;-59
2023/09/10 11:35:29;;;;;;;16.97;5.67;;;;;;;16.98;100.00;100630.56;5036882;28;20280;-59
2023/09/10 11:38:00;;;;;;;21.35;6.70;;;;;;;17.23;100.00;100673.59;5042210;28;20286;-59
2023/09/10 11:40:34;;;;;;;21.93;6.47;;;;;;;17.28;100.00;100680.50;5048331;28;20059;-59
2023/09/10 11:43:06;;;;;;;15.97;7.07;;;;;;;17.27;100.00;100674.34;5038018;28;20279;-59
2023/09/10 11:45:38;;;;;;;21.53;6.20;;;;;;;17.30;100.00;100683.94;5048644;28;20299;-60
2023/09/10 11:48:10;;;;;;;18.97;6.47;;;;;;;17.33;100.00;100678.56;5038581;28;20385;-60
2023/09/10 11:50:44;;;;;;;17.63;6.40;;;;;;;17.34;100.00;100691.69;5048176;28;20283;-60
2023/09/10 11:53:15;;;;;;;19.23;6.03;;;;;;;17.35;100.00;100679.38;5037112;28;20389;-60
2023/09/10 11:55:50;;;;;;;17.27;6.27;;;;;;;17.38;100.00;100689.81;5050476;28;20294;-60
2023/09/10 11:58:22;;;;;;;20.93;6.27;;;;;;;17.41;100.00;100681.75;5037318;28;20297;-60